PWSweather.com
Personal Weather Stations
Station Observations
WATERF01
WaterfordIE

WaterfordIE

Lat: 52.2412507, Lon: -7.1414691

Elevation: 65

Station Type: Davis Vantage Vue

Latest ConditionsUpdated 9:50:01 PM GMT Sunday, Jan 19, 2020
Currently Today's Max Today's Min Today's Average
Temperature 35.7°F2.1°C 45.7°F7.6°C 27.1°F-2.7°C 34.7°F1.5°C
Dew Point 31.9°F-0.1°C 44.6°F7.0°C 26.9°F-2.8°C 33.3°F0.7°C
Winds Calm Calm 4.6 mph -7.4 kmh - - 0.4 mph 0.6 kmh
Wind Gusts -- 6.9 mph11.1 kmh - -
Humidity 86% 99% 85% 95%
Pressure 30.95 in1048.1 mb 30.95 in1048.1 mb 30.72 in1040.3 mb -
Hour Temp Dew Point Humidity Winds Wind Gusts Pressure Precip Precip Rate Daily Precip Total
09:50 PM 35.7°F2.1°C 31.9°F-0.1°C 86% Calm Calm -- 30.95 in1048.1 mb - 0.00 in0.0 mm 0.00 in0.0 mm
09:40 PM 35.8°F2.1°C 32.0°F0.0°C 86% Calm Calm -- 30.95 in1048.1 mb - 0.00 in0.0 mm 0.00 in0.0 mm
09:30 PM 35.8°F2.1°C 32.0°F0.0°C 86% Calm Calm -- 30.95 in1048.1 mb - 0.00 in0.0 mm 0.00 in0.0 mm
09:20 PM 36.0°F2.2°C 32.2°F0.1°C 86% Calm Calm -- 30.95 in1048.1 mb - 0.00 in0.0 mm 0.00 in0.0 mm
09:10 PM 35.7°F2.1°C 31.9°F-0.1°C 86% Calm Calm -- 30.95 in1048.1 mb - 0.00 in0.0 mm 0.00 in0.0 mm
09:00 PM 35.8°F2.1°C 32.0°F0.0°C 86% Calm Calm -- 30.95 in1048.1 mb - 0.00 in0.0 mm 0.00 in0.0 mm
08:50 PM 36.0°F2.2°C 32.2°F0.1°C 86% Calm Calm -- 30.95 in1048.1 mb - 0.00 in0.0 mm 0.00 in0.0 mm
08:40 PM 36.3°F2.4°C 32.5°F0.3°C 86% Calm Calm -- 30.95 in1048.1 mb - 0.00 in0.0 mm 0.00 in0.0 mm
08:30 PM 36.9°F2.7°C 33.1°F0.6°C 86% Calm Calm -- 30.95 in1048.1 mb - 0.00 in0.0 mm 0.00 in0.0 mm
08:20 PM 37.2°F2.9°C 33.4°F0.8°C 86% Calm Calm -- 30.94 in1047.7 mb - 0.00 in0.0 mm 0.00 in0.0 mm
08:10 PM 37.2°F2.9°C 33.4°F0.8°C 86% Calm Calm -- 30.95 in1048.1 mb - 0.00 in0.0 mm 0.00 in0.0 mm
08:00 PM 37.0°F2.8°C 33.2°F0.7°C 86% Calm Calm -- 30.95 in1048.1 mb - 0.00 in0.0 mm 0.00 in0.0 mm
07:50 PM 36.9°F2.7°C 33.1°F0.6°C 86% Calm Calm -- 30.95 in1048.1 mb - 0.00 in0.0 mm 0.00 in0.0 mm
07:40 PM 37.1°F2.8°C 33.3°F0.7°C 86% Calm Calm -- 30.95 in1048.1 mb - 0.00 in0.0 mm 0.00 in0.0 mm
07:30 PM 37.3°F2.9°C 33.5°F0.8°C 86% Calm Calm -- 30.95 in1048.1 mb - 0.00 in0.0 mm 0.00 in0.0 mm
07:20 PM 37.2°F2.9°C 33.4°F0.8°C 86% Calm Calm -- 30.94 in1047.7 mb - 0.00 in0.0 mm 0.00 in0.0 mm
07:10 PM 36.9°F2.7°C 33.1°F0.6°C 86% Calm Calm -- 30.94 in1047.7 mb - 0.00 in0.0 mm 0.00 in0.0 mm
07:00 PM 36.6°F2.6°C 32.8°F0.4°C 86% Calm Calm -- 30.94 in1047.7 mb - 0.00 in0.0 mm 0.00 in0.0 mm
06:50 PM 37.9°F3.3°C 34.1°F1.2°C 86% Calm Calm -- 30.93 in1047.4 mb - 0.00 in0.0 mm 0.00 in0.0 mm
06:40 PM 38.6°F3.7°C 34.8°F1.6°C 86% Calm Calm -- 30.93 in1047.4 mb - 0.00 in0.0 mm 0.00 in0.0 mm
06:30 PM 38.9°F3.8°C 35.1°F1.7°C 86% Calm Calm -- 30.93 in1047.4 mb - 0.00 in0.0 mm 0.00 in0.0 mm
06:20 PM 39.0°F3.9°C 35.2°F1.8°C 86% Calm Calm -- 30.93 in1047.4 mb - 0.00 in0.0 mm 0.00 in0.0 mm
06:10 PM 39.0°F3.9°C 35.2°F1.8°C 86% Calm Calm -- 30.93 in1047.4 mb - 0.00 in0.0 mm 0.00 in0.0 mm
06:00 PM 39.5°F4.2°C 35.7°F2.1°C 86% Calm Calm -- 30.93 in1047.4 mb - 0.00 in0.0 mm 0.00 in0.0 mm
05:50 PM 39.4°F4.1°C 35.3°F1.8°C 85% Calm Calm -- 30.93 in1047.4 mb - 0.00 in0.0 mm 0.00 in0.0 mm
05:40 PM 39.8°F4.3°C 35.7°F2.1°C 85% Calm Calm -- 30.93 in1047.4 mb - 0.00 in0.0 mm 0.00 in0.0 mm
05:30 PM 40.2°F4.6°C 36.1°F2.3°C 85% Calm Calm -- 30.93 in1047.4 mb - 0.00 in0.0 mm 0.00 in0.0 mm
05:20 PM 40.5°F4.7°C 36.3°F2.4°C 85% Calm Calm -- 30.93 in1047.4 mb - 0.00 in0.0 mm 0.00 in0.0 mm
05:10 PM 40.7°F4.8°C 36.6°F2.6°C 85% Calm Calm -- 30.92 in1047.1 mb - 0.00 in0.0 mm 0.00 in0.0 mm
05:00 PM 41.3°F5.2°C 37.1°F2.8°C 85% Calm Calm -- 30.92 in1047.1 mb - 0.00 in0.0 mm 0.00 in0.0 mm
04:50 PM 42.2°F5.7°C 38.0°F3.3°C 85% Calm Calm -- 30.92 in1047.1 mb - 0.00 in0.0 mm 0.00 in0.0 mm
04:40 PM 42.5°F5.8°C 38.3°F3.5°C 85% Calm Calm -- 30.91 in1046.7 mb - 0.00 in0.0 mm 0.00 in0.0 mm
04:20 PM 43.4°F6.3°C 41.8°F5.4°C 94% Calm Calm -- 30.91 in1046.7 mb - 0.00 in0.0 mm 0.00 in0.0 mm
04:10 PM 43.9°F6.6°C 42.3°F5.7°C 94% Calm Calm -- 30.91 in1046.7 mb - 0.00 in0.0 mm 0.00 in0.0 mm
04:00 PM 44.1°F6.7°C 42.5°F5.8°C 94% 1.2 mph S1.9 kmh S 2.3 mph3.7 kmh 30.91 in1046.7 mb - 0.00 in0.0 mm 0.00 in0.0 mm
03:50 PM 44.4°F6.9°C 43.1°F6.2°C 95% Calm Calm -- 30.91 in1046.7 mb - 0.00 in0.0 mm 0.00 in0.0 mm
03:40 PM 44.7°F7.1°C 43.4°F6.3°C 95% 1.2 mph SSE1.9 kmh SSE 2.3 mph3.7 kmh 30.91 in1046.7 mb - 0.00 in0.0 mm 0.00 in0.0 mm
03:30 PM 44.9°F7.2°C 43.8°F6.6°C 96% 3.5 mph S5.6 kmh S 5.8 mph9.3 kmh 30.91 in1046.7 mb - 0.00 in0.0 mm 0.00 in0.0 mm
03:20 PM 45.7°F7.6°C 44.6°F7.0°C 96% 3.5 mph S5.6 kmh S 4.6 mph7.4 kmh 30.91 in1046.7 mb - 0.00 in0.0 mm 0.00 in0.0 mm
03:10 PM 45.4°F7.4°C 44.3°F6.8°C 96% 3.5 mph S5.6 kmh S 5.8 mph9.3 kmh 30.91 in1046.7 mb - 0.00 in0.0 mm 0.00 in0.0 mm
03:00 PM 45.2°F7.3°C 44.4°F6.9°C 97% 4.6 mph S7.4 kmh S 6.9 mph11.1 kmh 30.90 in1046.4 mb - 0.00 in0.0 mm 0.00 in0.0 mm
02:50 PM 45.3°F7.4°C 44.2°F6.8°C 96% 3.5 mph S5.6 kmh S 5.8 mph9.3 kmh 30.90 in1046.4 mb - 0.00 in0.0 mm 0.00 in0.0 mm
02:40 PM 45.2°F7.3°C 43.8°F6.6°C 95% 1.2 mph SW1.9 kmh SW 4.6 mph7.4 kmh 30.91 in1046.7 mb - 0.00 in0.0 mm 0.00 in0.0 mm
02:30 PM 45.0°F7.2°C 43.9°F6.6°C 96% 3.5 mph SSW5.6 kmh SSW 6.9 mph11.1 kmh 30.90 in1046.4 mb - 0.00 in0.0 mm 0.00 in0.0 mm
02:20 PM 44.3°F6.8°C 43.3°F6.3°C 96% 4.6 mph S7.4 kmh S 5.8 mph9.3 kmh 30.90 in1046.4 mb - 0.00 in0.0 mm 0.00 in0.0 mm
02:10 PM 44.3°F6.8°C 43.5°F6.4°C 97% 2.3 mph SSW3.7 kmh SSW 4.6 mph7.4 kmh 30.91 in1046.7 mb - 0.00 in0.0 mm 0.00 in0.0 mm
02:00 PM 44.2°F6.8°C 43.4°F6.3°C 97% 4.6 mph SSW7.4 kmh SSW 6.9 mph11.1 kmh 30.91 in1046.7 mb - 0.00 in0.0 mm 0.00 in0.0 mm
01:50 PM 44.0°F6.7°C 43.2°F6.2°C 97% Calm Calm 2.3 mph3.7 kmh 30.91 in1046.7 mb - 0.00 in0.0 mm 0.00 in0.0 mm
01:40 PM 43.3°F6.3°C 43.0°F6.1°C 99% 3.5 mph SSE5.6 kmh SSE 5.8 mph9.3 kmh 30.91 in1046.7 mb - 0.00 in0.0 mm 0.00 in0.0 mm
01:30 PM 42.5°F5.8°C 42.2°F5.7°C 99% 3.5 mph SSE5.6 kmh SSE 5.8 mph9.3 kmh 30.91 in1046.7 mb - 0.00 in0.0 mm 0.00 in0.0 mm
01:20 PM 41.2°F5.1°C 40.4°F4.7°C 97% Calm Calm -- 30.91 in1046.7 mb - 0.00 in0.0 mm 0.00 in0.0 mm
01:10 PM 40.0°F4.4°C 39.2°F4.0°C 97% Calm Calm -- 30.91 in1046.7 mb - 0.00 in0.0 mm 0.00 in0.0 mm
01:00 PM 39.2°F4.0°C 38.2°F3.4°C 96% Calm Calm -- 30.91 in1046.7 mb - 0.00 in0.0 mm 0.00 in0.0 mm
12:50 PM 38.6°F3.7°C 37.3°F2.9°C 95% Calm Calm -- 30.90 in1046.4 mb - 0.00 in0.0 mm 0.00 in0.0 mm
12:40 PM 38.1°F3.4°C 36.8°F2.7°C 95% Calm Calm 4.6 mph7.4 kmh 30.90 in1046.4 mb - 0.00 in0.0 mm 0.00 in0.0 mm
12:30 PM 37.9°F3.3°C 36.6°F2.6°C 95% Calm Calm 2.3 mph3.7 kmh 30.91 in1046.7 mb - 0.00 in0.0 mm 0.00 in0.0 mm
12:20 PM 37.4°F3.0°C 36.1°F2.3°C 95% Calm Calm -- 30.91 in1046.7 mb - 0.00 in0.0 mm 0.00 in0.0 mm
12:10 PM 37.3°F2.9°C 36.0°F2.2°C 95% Calm Calm -- 30.91 in1046.7 mb - 0.00 in0.0 mm 0.00 in0.0 mm
12:00 PM 37.1°F2.8°C 35.3°F1.8°C 93% Calm Calm -- 30.92 in1047.1 mb - 0.00 in0.0 mm 0.00 in0.0 mm
11:50 AM 36.4°F2.4°C 34.8°F1.6°C 94% Calm Calm -- 30.92 in1047.1 mb - 0.00 in0.0 mm 0.00 in0.0 mm
11:40 AM 35.9°F2.2°C 34.6°F1.4°C 95% Calm Calm -- 30.92 in1047.1 mb - 0.00 in0.0 mm 0.00 in0.0 mm
11:30 AM 35.6°F2.0°C 34.6°F1.4°C 96% Calm Calm -- 30.92 in1047.1 mb - 0.00 in0.0 mm 0.00 in0.0 mm
11:20 AM 34.8°F1.6°C 33.8°F1.0°C 96% Calm Calm -- 30.92 in1047.1 mb - 0.00 in0.0 mm 0.00 in0.0 mm
11:10 AM 34.3°F1.3°C 33.5°F0.8°C 97% Calm Calm -- 30.92 in1047.1 mb - 0.00 in0.0 mm 0.00 in0.0 mm
11:00 AM 35.2°F1.8°C 34.5°F1.4°C 97% Calm Calm -- 30.91 in1046.7 mb - 0.00 in0.0 mm 0.00 in0.0 mm
10:50 AM 34.8°F1.6°C 34.0°F1.1°C 97% Calm Calm -- 30.91 in1046.7 mb - 0.00 in0.0 mm 0.00 in0.0 mm
10:40 AM 33.5°F0.8°C 33.0°F0.6°C 98% Calm Calm -- 30.91 in1046.7 mb - 0.00 in0.0 mm 0.00 in0.0 mm
10:30 AM 32.0°F0.0°C 31.8°F-0.1°C 99% Calm Calm -- 30.90 in1046.4 mb - 0.00 in0.0 mm 0.00 in0.0 mm
10:20 AM 30.9°F-0.6°C 30.7°F-0.7°C 99% Calm Calm -- 30.90 in1046.4 mb - 0.00 in0.0 mm 0.00 in0.0 mm
10:10 AM 30.6°F-0.8°C 30.4°F-0.9°C 99% Calm Calm -- 30.89 in1046.1 mb - 0.00 in0.0 mm 0.00 in0.0 mm
10:00 AM 30.0°F-1.1°C 29.8°F-1.2°C 99% Calm Calm -- 30.89 in1046.1 mb - 0.00 in0.0 mm 0.00 in0.0 mm
09:50 AM 29.0°F-1.7°C 28.8°F-1.8°C 99% Calm Calm -- 30.89 in1046.1 mb - 0.00 in0.0 mm 0.00 in0.0 mm
09:40 AM 28.6°F-1.9°C 28.4°F-2.0°C 99% Calm Calm -- 30.89 in1046.1 mb - 0.00 in0.0 mm 0.00 in0.0 mm
09:30 AM 28.1°F-2.2°C 27.8°F-2.3°C 99% Calm Calm -- 30.89 in1046.1 mb - 0.00 in0.0 mm 0.00 in0.0 mm
09:20 AM 27.8°F-2.3°C 27.5°F-2.5°C 99% Calm Calm -- 30.88 in1045.7 mb - 0.00 in0.0 mm 0.00 in0.0 mm
09:10 AM 27.5°F-2.5°C 27.3°F-2.6°C 99% Calm Calm -- 30.88 in1045.7 mb - 0.00 in0.0 mm 0.00 in0.0 mm
09:00 AM 27.5°F-2.5°C 27.3°F-2.6°C 99% Calm Calm -- 30.88 in1045.7 mb - 0.00 in0.0 mm 0.00 in0.0 mm
08:50 AM 27.2°F-2.7°C 27.0°F-2.8°C 99% Calm Calm -- 30.87 in1045.4 mb - 0.00 in0.0 mm 0.00 in0.0 mm
08:40 AM 27.1°F-2.7°C 26.9°F-2.8°C 99% Calm Calm -- 30.87 in1045.4 mb - 0.00 in0.0 mm 0.00 in0.0 mm
08:30 AM 27.1°F-2.7°C 26.9°F-2.8°C 99% Calm Calm -- 30.86 in1045.0 mb - 0.00 in0.0 mm 0.00 in0.0 mm
08:20 AM 27.2°F-2.7°C 27.0°F-2.8°C 99% Calm Calm -- 30.86 in1045.0 mb - 0.00 in0.0 mm 0.00 in0.0 mm
08:10 AM 27.4°F-2.6°C 27.2°F-2.7°C 99% Calm Calm -- 30.86 in1045.0 mb - 0.00 in0.0 mm 0.00 in0.0 mm
08:00 AM 27.5°F-2.5°C 27.3°F-2.6°C 99% Calm Calm -- 30.85 in1044.7 mb - 0.00 in0.0 mm 0.00 in0.0 mm
07:50 AM 27.5°F-2.5°C 27.3°F-2.6°C 99% Calm Calm -- 30.85 in1044.7 mb - 0.00 in0.0 mm 0.00 in0.0 mm
07:40 AM 27.6°F-2.4°C 27.4°F-2.6°C 99% Calm Calm -- 30.85 in1044.7 mb - 0.00 in0.0 mm 0.00 in0.0 mm
07:30 AM 27.8°F-2.3°C 27.6°F-2.4°C 99% Calm Calm -- 30.85 in1044.7 mb - 0.00 in0.0 mm 0.00 in0.0 mm
07:20 AM 27.8°F-2.3°C 27.6°F-2.4°C 99% Calm Calm -- 30.85 in1044.7 mb - 0.00 in0.0 mm 0.00 in0.0 mm
07:10 AM 27.8°F-2.3°C 27.6°F-2.4°C 99% Calm Calm -- 30.84 in1044.4 mb - 0.00 in0.0 mm 0.00 in0.0 mm
07:00 AM 27.9°F-2.3°C 27.7°F-2.4°C 99% Calm Calm -- 30.84 in1044.4 mb - 0.00 in0.0 mm 0.00 in0.0 mm
06:50 AM 28.0°F-2.2°C 27.8°F-2.3°C 99% Calm Calm -- 30.83 in1044.0 mb - 0.00 in0.0 mm 0.00 in0.0 mm
06:40 AM 27.8°F-2.3°C 27.6°F-2.4°C 99% Calm Calm -- 30.83 in1044.0 mb - 0.00 in0.0 mm 0.00 in0.0 mm
06:30 AM 27.8°F-2.3°C 27.6°F-2.4°C 99% Calm Calm -- 30.83 in1044.0 mb - 0.00 in0.0 mm 0.00 in0.0 mm
06:20 AM 27.8°F-2.3°C 27.6°F-2.4°C 99% Calm Calm -- 30.82 in1043.7 mb - 0.00 in0.0 mm 0.00 in0.0 mm
06:10 AM 28.0°F-2.2°C 27.8°F-2.3°C 99% Calm Calm -- 30.82 in1043.7 mb - 0.00 in0.0 mm 0.00 in0.0 mm
06:00 AM 28.0°F-2.2°C 27.8°F-2.3°C 99% Calm Calm -- 30.82 in1043.7 mb - 0.00 in0.0 mm 0.00 in0.0 mm
05:50 AM 28.1°F-2.2°C 27.9°F-2.3°C 99% Calm Calm -- 30.82 in1043.7 mb - 0.00 in0.0 mm 0.00 in0.0 mm
05:40 AM 28.0°F-2.2°C 27.8°F-2.3°C 99% Calm Calm -- 30.81 in1043.3 mb - 0.00 in0.0 mm 0.00 in0.0 mm
05:30 AM 28.1°F-2.2°C 27.9°F-2.3°C 99% Calm Calm -- 30.81 in1043.3 mb - 0.00 in0.0 mm 0.00 in0.0 mm
05:20 AM 28.4°F-2.0°C 28.2°F-2.1°C 99% Calm Calm -- 30.80 in1043.0 mb - 0.00 in0.0 mm 0.00 in0.0 mm
05:10 AM 28.5°F-1.9°C 28.3°F-2.1°C 99% Calm Calm -- 30.80 in1043.0 mb - 0.00 in0.0 mm 0.00 in0.0 mm
05:00 AM 28.8°F-1.8°C 28.5°F-1.9°C 99% Calm Calm -- 30.80 in1043.0 mb - 0.00 in0.0 mm 0.00 in0.0 mm
04:50 AM 29.0°F-1.7°C 28.8°F-1.8°C 99% Calm Calm 2.3 mph3.7 kmh 30.80 in1043.0 mb - 0.00 in0.0 mm 0.00 in0.0 mm
04:40 AM 28.9°F-1.7°C 28.7°F-1.8°C 99% Calm Calm -- 30.79 in1042.7 mb - 0.00 in0.0 mm 0.00 in0.0 mm
04:30 AM 29.0°F-1.7°C 28.8°F-1.8°C 99% Calm Calm -- 30.79 in1042.7 mb - 0.00 in0.0 mm 0.00 in0.0 mm
04:20 AM 29.0°F-1.7°C 28.8°F-1.8°C 99% Calm Calm 1.2 mph1.9 kmh 30.79 in1042.7 mb - 0.00 in0.0 mm 0.00 in0.0 mm
04:10 AM 29.2°F-1.6°C 29.0°F-1.7°C 99% Calm Calm -- 30.79 in1042.7 mb - 0.00 in0.0 mm 0.00 in0.0 mm
04:00 AM 29.3°F-1.5°C 29.1°F-1.6°C 99% Calm Calm -- 30.79 in1042.7 mb - 0.00 in0.0 mm 0.00 in0.0 mm
03:50 AM 29.7°F-1.3°C 29.5°F-1.4°C 99% Calm Calm -- 30.78 in1042.3 mb - 0.00 in0.0 mm 0.00 in0.0 mm
03:40 AM 30.0°F-1.1°C 29.8°F-1.2°C 99% Calm Calm -- 30.78 in1042.3 mb - 0.00 in0.0 mm 0.00 in0.0 mm
03:30 AM 30.4°F-0.9°C 30.2°F-1.0°C 99% Calm Calm -- 30.77 in1042.0 mb - 0.00 in0.0 mm 0.00 in0.0 mm
03:20 AM 30.2°F-1.0°C 30.0°F-1.1°C 99% Calm Calm -- 30.77 in1042.0 mb - 0.00 in0.0 mm 0.00 in0.0 mm
03:10 AM 30.1°F-1.1°C 29.9°F-1.2°C 99% Calm Calm -- 30.77 in1042.0 mb - 0.00 in0.0 mm 0.00 in0.0 mm
03:00 AM 30.0°F-1.1°C 29.8°F-1.2°C 99% Calm Calm -- 30.76 in1041.7 mb - 0.00 in0.0 mm 0.00 in0.0 mm
02:50 AM 30.3°F-0.9°C 30.1°F-1.1°C 99% Calm Calm -- 30.76 in1041.7 mb - 0.00 in0.0 mm 0.00 in0.0 mm
02:40 AM 30.5°F-0.8°C 30.3°F-0.9°C 99% Calm Calm -- 30.76 in1041.7 mb - 0.00 in0.0 mm 0.00 in0.0 mm
02:30 AM 30.8°F-0.7°C 30.6°F-0.8°C 99% Calm Calm -- 30.76 in1041.7 mb - 0.00 in0.0 mm 0.00 in0.0 mm
02:20 AM 31.1°F-0.5°C 30.9°F-0.6°C 99% Calm Calm -- 30.75 in1041.3 mb - 0.00 in0.0 mm 0.00 in0.0 mm
02:10 AM 31.2°F-0.4°C 30.9°F-0.6°C 99% Calm Calm -- 30.75 in1041.3 mb - 0.00 in0.0 mm 0.00 in0.0 mm
02:00 AM 31.3°F-0.4°C 31.1°F-0.5°C 99% Calm Calm -- 30.75 in1041.3 mb - 0.00 in0.0 mm 0.00 in0.0 mm
01:50 AM 31.4°F-0.3°C 31.1°F-0.5°C 99% Calm Calm -- 30.75 in1041.3 mb - 0.00 in0.0 mm 0.00 in0.0 mm
01:40 AM 32.1°F0.1°C 31.9°F-0.1°C 99% Calm Calm -- 30.74 in1041.0 mb - 0.00 in0.0 mm 0.00 in0.0 mm
01:30 AM 32.2°F0.1°C 31.9°F-0.1°C 99% Calm Calm -- 30.74 in1041.0 mb - 0.00 in0.0 mm 0.00 in0.0 mm
01:20 AM 32.8°F0.4°C 32.6°F0.3°C 99% Calm Calm -- 30.74 in1041.0 mb - 0.00 in0.0 mm 0.00 in0.0 mm
01:10 AM 33.1°F0.6°C 32.9°F0.5°C 99% 2.3 mph WNW3.7 kmh WNW 5.8 mph9.3 kmh 30.73 in1040.6 mb - 0.00 in0.0 mm 0.00 in0.0 mm
01:00 AM 32.8°F0.4°C 32.6°F0.3°C 99% Calm Calm -- 30.73 in1040.6 mb - 0.00 in0.0 mm 0.00 in0.0 mm
12:50 AM 32.8°F0.4°C 32.6°F0.3°C 99% Calm Calm -- 30.73 in1040.6 mb - 0.00 in0.0 mm 0.00 in0.0 mm
12:40 AM 33.1°F0.6°C 32.9°F0.5°C 99% Calm Calm 1.2 mph1.9 kmh 30.73 in1040.6 mb - 0.00 in0.0 mm 0.00 in0.0 mm
12:30 AM 33.4°F0.8°C 32.6°F0.3°C 97% Calm Calm -- 30.72 in1040.3 mb - 0.00 in0.0 mm 0.00 in0.0 mm
12:20 AM 34.1°F1.2°C 33.6°F0.9°C 98% Calm Calm -- 30.72 in1040.3 mb - 0.00 in0.0 mm 0.00 in0.0 mm
12:10 AM 34.6°F1.4°C 34.3°F1.3°C 99% 2.3 mph NW3.7 kmh NW 2.3 mph3.7 kmh 30.72 in1040.3 mb - 0.00 in0.0 mm 0.00 in0.0 mm
12:00 AM 34.5°F1.4°C 34.2°F1.2°C 99% 1.2 mph WNW1.9 kmh WNW 4.6 mph7.4 kmh 30.72 in1040.3 mb - 0.00 in0.0 mm 0.00 in0.0 mm